createdAt,value
2022-10-20T00:01:50.061Z,94.20
2022-10-20T00:04:16.792Z,94.10
2022-10-20T00:06:43.503Z,94.20
2022-10-20T00:09:10.303Z,94.10
2022-10-20T00:11:37.101Z,94.10
2022-10-20T00:14:04.404Z,94.10
2022-10-20T00:16:32.066Z,94.00
2022-10-20T00:18:58.894Z,94.00
2022-10-20T00:21:26.486Z,94.00
2022-10-20T00:23:53.302Z,94.10
2022-10-20T00:26:22.337Z,94.40
2022-10-20T00:28:49.489Z,94.40
2022-10-20T00:31:16.452Z,94.10
2022-10-20T00:33:43.216Z,94.50
2022-10-20T00:36:13.501Z,94.30
2022-10-20T00:38:40.202Z,94.30
2022-10-20T00:41:07.099Z,94.40
2022-10-20T00:43:43.978Z,94.20
2022-10-20T00:46:12.250Z,94.20
2022-10-20T00:48:39.003Z,94.10
2022-10-20T00:51:05.856Z,94.10
2022-10-20T00:53:32.647Z,94.10
2022-10-20T00:55:59.416Z,94.40
2022-10-20T00:58:26.147Z,94.10
2022-10-20T01:00:54.890Z,94.10
2022-10-20T01:03:30.493Z,94.10
2022-10-20T01:05:57.222Z,94.10
2022-10-20T01:08:23.927Z,94.10
2022-10-20T01:11:13.393Z,94.40
2022-10-20T01:13:51.584Z,94.40
2022-10-20T01:16:44.584Z,94.50
2022-10-20T01:19:35.298Z,94.50
2022-10-20T01:22:42.534Z,94.40
2022-10-20T01:25:19.006Z,94.20
2022-10-20T01:27:50.862Z,94.20
2022-10-20T01:30:21.243Z,94.10
2022-10-20T01:33:25.755Z,94.50
2022-10-20T01:35:52.849Z,94.20
2022-10-20T01:38:40.648Z,94.20
2022-10-20T01:41:23.075Z,94.20
2022-10-20T01:43:49.868Z,94.20
2022-10-20T01:46:17.244Z,94.60
2022-10-20T01:48:44.018Z,94.60
2022-10-20T01:51:10.817Z,94.50
2022-10-20T01:53:37.633Z,94.50
2022-10-20T01:56:04.854Z,94.40
2022-10-20T01:59:10.037Z,94.30
2022-10-20T02:02:01.169Z,94.20
2022-10-20T02:04:47.564Z,94.30
2022-10-20T02:07:24.844Z,94.20
2022-10-20T02:12:27.906Z,94.20
2022-10-20T02:14:55.085Z,94.20
2022-10-20T02:17:21.801Z,94.20
2022-10-20T02:19:50.258Z,94.40
2022-10-20T02:22:17.045Z,94.60
2022-10-20T02:24:44.323Z,94.60
2022-10-20T02:27:20.537Z,94.60
2022-10-20T02:29:50.536Z,94.50
2022-10-20T02:32:17.368Z,94.40
2022-10-20T02:34:44.284Z,94.30
2022-10-20T02:37:11.135Z,94.30
2022-10-20T02:39:37.904Z,94.30
2022-10-20T02:42:04.644Z,94.30
2022-10-20T02:44:31.339Z,94.30
2022-10-20T02:46:58.246Z,94.30
2022-10-20T02:49:25.258Z,94.60
2022-10-20T02:51:52.008Z,94.20
2022-10-20T02:54:18.769Z,94.30
2022-10-20T02:56:45.569Z,94.50
2022-10-20T02:59:16.896Z,94.60
2022-10-20T03:01:44.297Z,94.60
2022-10-20T03:04:11.419Z,94.60
2022-10-20T03:06:38.214Z,94.50
2022-10-20T03:09:05.646Z,94.40
2022-10-20T03:11:32.513Z,94.30
2022-10-20T03:13:59.801Z,94.30
2022-10-20T03:16:26.584Z,94.70
2022-10-20T03:18:53.315Z,94.20
2022-10-20T03:21:20.014Z,94.30
2022-10-20T03:23:48.118Z,94.60
2022-10-20T03:26:14.911Z,94.30
2022-10-20T03:28:41.765Z,94.30
2022-10-20T03:31:08.595Z,94.40
2022-10-20T03:33:35.390Z,94.90
2022-10-20T03:36:02.337Z,94.60
2022-10-20T03:38:29.036Z,94.60
2022-10-20T03:40:56.050Z,94.50
2022-10-20T03:43:22.787Z,94.40
2022-10-20T03:45:49.500Z,94.40
2022-10-20T03:48:16.225Z,94.30
2022-10-20T03:50:43.058Z,94.30
2022-10-20T03:53:12.944Z,94.30
2022-10-20T03:55:39.690Z,94.30
2022-10-20T03:58:07.637Z,94.30
2022-10-20T04:00:34.343Z,94.30
2022-10-20T04:03:01.395Z,94.30
2022-10-20T04:05:28.147Z,94.20
2022-10-20T04:07:54.877Z,94.50
2022-10-20T04:10:21.626Z,94.60
2022-10-20T04:12:48.420Z,94.60
2022-10-20T04:15:15.177Z,94.60
2022-10-20T04:17:41.895Z,94.50
2022-10-20T04:20:09.259Z,94.40
2022-10-20T04:22:36.320Z,94.40
2022-10-20T04:25:03.746Z,94.40
2022-10-20T04:27:30.652Z,94.30
2022-10-20T04:29:57.390Z,94.30
2022-10-20T04:32:24.079Z,94.30
2022-10-20T04:34:50.813Z,94.30
2022-10-20T04:37:17.515Z,94.30
2022-10-20T04:39:44.218Z,94.30
2022-10-20T04:42:10.960Z,94.30
2022-10-20T04:44:37.679Z,94.60
2022-10-20T04:47:04.739Z,94.60
2022-10-20T04:49:31.547Z,94.60
2022-10-20T04:52:01.004Z,94.60
2022-10-20T04:54:28.268Z,94.60
2022-10-20T04:56:55.108Z,94.50
2022-10-20T04:59:21.826Z,94.40
2022-10-20T05:01:48.619Z,94.40
2022-10-20T05:04:21.272Z,94.40
2022-10-20T05:06:48.643Z,94.40
2022-10-20T05:09:15.833Z,94.30
2022-10-20T05:11:42.767Z,94.80
2022-10-20T05:14:10.181Z,94.60
2022-10-20T05:16:37.544Z,94.50
2022-10-20T05:19:04.394Z,94.70
2022-10-20T05:21:31.466Z,95.50
2022-10-20T05:23:59.636Z,95.20
2022-10-20T05:26:26.696Z,95.50
2022-10-20T05:28:53.553Z,95.30
2022-10-20T05:31:21.600Z,95.50
2022-10-20T05:33:53.129Z,95.80
2022-10-20T05:39:08.016Z,96.20
2022-10-20T05:41:38.109Z,96.20
2022-10-20T05:44:08.744Z,96.20
2022-10-20T05:46:41.110Z,96.10
2022-10-20T05:49:14.276Z,96.10
2022-10-20T05:51:41.200Z,96.30
2022-10-20T05:54:10.678Z,96.20
2022-10-20T05:56:38.926Z,96.20
2022-10-20T05:59:06.543Z,96.30
2022-10-20T06:01:48.299Z,96.20
2022-10-20T06:04:17.103Z,96.20
2022-10-20T06:06:44.287Z,96.20
2022-10-20T06:09:11.372Z,96.50
2022-10-20T06:11:39.879Z,96.10
2022-10-20T06:14:09.300Z,96.10
2022-10-20T06:16:36.102Z,96.10
2022-10-20T06:19:02.945Z,96.00
2022-10-20T06:21:31.368Z,96.00
2022-10-20T06:23:59.345Z,96.00
2022-10-20T06:26:29.913Z,95.90
2022-10-20T06:29:01.329Z,95.80
2022-10-20T06:31:32.330Z,95.70
2022-10-20T06:33:59.206Z,95.70
2022-10-20T06:36:26.428Z,95.70
2022-10-20T06:38:57.316Z,95.70
2022-10-20T06:41:24.295Z,95.80
2022-10-20T06:43:55.285Z,95.70
2022-10-20T06:46:22.044Z,95.70
2022-10-20T06:48:48.756Z,95.80
2022-10-20T06:51:16.541Z,95.70
2022-10-20T06:53:46.540Z,95.80
2022-10-20T06:56:24.309Z,95.80
2022-10-20T06:58:52.356Z,95.80
2022-10-20T07:01:21.041Z,95.80
2022-10-20T07:03:48.116Z,96.20
2022-10-20T07:06:16.607Z,95.80
2022-10-20T07:08:43.393Z,95.80
2022-10-20T07:11:12.780Z,95.80
2022-10-20T07:13:39.920Z,95.80
2022-10-20T07:16:07.945Z,95.80
2022-10-20T07:18:35.460Z,95.70
2022-10-20T07:21:07.254Z,95.70
2022-10-20T07:23:34.183Z,95.70
2022-10-20T07:26:08.680Z,95.80
2022-10-20T07:28:35.773Z,96.10
2022-10-20T07:31:13.385Z,95.70
2022-10-20T07:33:42.199Z,95.70
2022-10-20T07:36:19.779Z,95.60
2022-10-20T07:38:47.116Z,95.60
2022-10-20T07:41:14.368Z,95.60
2022-10-20T07:43:41.951Z,95.60
2022-10-20T07:46:09.390Z,95.60
2022-10-20T07:48:36.145Z,95.60
2022-10-20T07:51:21.732Z,95.60
2022-10-20T07:53:54.669Z,95.60
2022-10-20T07:56:23.719Z,95.50
2022-10-20T07:58:50.492Z,95.50
2022-10-20T08:01:17.358Z,95.50
2022-10-20T08:03:44.815Z,95.40
2022-10-20T08:06:12.734Z,95.50
2022-10-20T08:08:40.187Z,95.40
2022-10-20T08:11:07.036Z,95.50
2022-10-20T08:13:33.750Z,95.50
2022-10-20T08:16:00.874Z,95.80
2022-10-20T08:19:05.459Z,95.50
2022-10-20T08:21:17.376Z,95.40
2022-10-20T08:23:46.037Z,95.50
2022-10-20T08:26:15.988Z,95.50
2022-10-20T08:28:43.773Z,95.50
2022-10-20T08:31:10.645Z,95.40
2022-10-20T08:33:37.428Z,95.50
2022-10-20T08:36:08.879Z,95.40
2022-10-20T08:38:35.936Z,95.30
2022-10-20T08:41:03.293Z,95.40
2022-10-20T08:43:30.142Z,95.50
2022-10-20T08:45:56.932Z,95.40
2022-10-20T08:48:28.613Z,95.30
2022-10-20T08:50:55.412Z,95.20
2022-10-20T08:53:24.007Z,94.70
2022-10-20T08:55:50.952Z,94.50
2022-10-20T08:58:20.105Z,94.30
2022-10-20T09:00:47.267Z,94.30
2022-10-20T09:03:22.134Z,93.60
2022-10-20T09:06:01.679Z,93.50
2022-10-20T09:08:29.750Z,93.00
2022-10-20T09:10:56.617Z,93.00
2022-10-20T09:13:27.887Z,92.80
2022-10-20T09:15:58.368Z,92.50
2022-10-20T09:18:25.081Z,92.80
2022-10-20T09:20:53.959Z,92.20
2022-10-20T09:23:40.618Z,92.10
2022-10-20T09:26:30.848Z,91.80
2022-10-20T09:29:17.602Z,91.50
2022-10-20T09:31:49.654Z,91.10
2022-10-20T09:34:29.864Z,90.80
2022-10-20T09:37:08.633Z,90.50
2022-10-20T09:39:54.989Z,90.50
2022-10-20T09:42:34.571Z,90.40
2022-10-20T09:45:11.972Z,90.60
2022-10-20T09:47:39.324Z,90.40
2022-10-20T09:50:06.723Z,90.00
2022-10-20T09:52:47.429Z,90.70
2022-10-20T09:55:32.415Z,90.40
2022-10-20T09:58:00.442Z,90.40
2022-10-20T10:00:38.173Z,90.80
2022-10-20T10:03:21.561Z,91.00
2022-10-20T10:05:58.695Z,90.90
2022-10-20T10:08:45.842Z,90.70
2022-10-20T10:11:18.428Z,90.70
2022-10-20T10:13:47.538Z,90.70
2022-10-20T10:16:19.488Z,90.70
2022-10-20T10:19:01.800Z,90.70
2022-10-20T10:21:42.939Z,90.80
2022-10-20T10:24:30.665Z,90.90
2022-10-20T10:26:57.436Z,90.80
2022-10-20T10:29:29.810Z,90.90
2022-10-20T10:32:03.406Z,90.60
2022-10-20T10:35:03.690Z,90.00
2022-10-20T10:37:33.876Z,90.40
2022-10-20T10:40:03.991Z,90.50
2022-10-20T10:43:02.780Z,91.60
2022-10-20T10:45:38.496Z,91.70
2022-10-20T10:48:30.865Z,91.40
2022-10-20T10:50:58.916Z,91.20
2022-10-20T10:53:56.777Z,91.10
2022-10-20T10:56:32.299Z,91.20
2022-10-20T10:59:06.100Z,91.90
2022-10-20T11:02:11.694Z,91.70
2022-10-20T11:04:45.180Z,91.90
2022-10-20T11:07:33.183Z,91.60
2022-10-20T11:10:40.719Z,91.40
2022-10-20T11:13:26.957Z,91.40
2022-10-20T11:16:19.945Z,91.60
2022-10-20T11:19:08.320Z,91.40
2022-10-20T11:21:53.586Z,91.40
2022-10-20T11:24:43.959Z,91.40
2022-10-20T11:27:17.842Z,91.40
2022-10-20T11:29:48.770Z,91.20
2022-10-20T11:32:20.643Z,91.10
2022-10-20T11:34:54.676Z,90.70
2022-10-20T11:37:26.371Z,90.40
2022-10-20T11:40:20.067Z,90.70
2022-10-20T11:43:08.700Z,91.10
2022-10-20T11:45:54.587Z,91.10
2022-10-20T11:48:29.398Z,91.00
2022-10-20T11:51:31.112Z,91.00
2022-10-20T11:54:15.727Z,91.10
2022-10-20T11:56:57.846Z,91.10
2022-10-20T11:59:49.851Z,91.10
2022-10-20T12:02:50.616Z,89.60
2022-10-20T12:05:24.029Z,90.10
2022-10-20T12:08:24.721Z,90.30
2022-10-20T12:11:09.674Z,90.50
2022-10-20T12:14:09.807Z,90.10
2022-10-20T12:16:51.973Z,90.10
2022-10-20T12:19:27.254Z,90.00
2022-10-20T12:22:02.091Z,89.80
2022-10-20T12:24:38.235Z,88.60
2022-10-20T12:27:14.828Z,89.50
2022-10-20T12:29:42.467Z,89.50
2022-10-20T12:32:27.854Z,88.90
2022-10-20T12:34:58.028Z,88.90
2022-10-20T12:37:26.025Z,89.30
2022-10-20T12:39:57.485Z,89.60
2022-10-20T12:42:31.584Z,90.10
2022-10-20T12:45:05.960Z,90.30
2022-10-20T12:47:36.120Z,90.60
2022-10-20T12:50:03.705Z,90.40
2022-10-20T12:52:32.525Z,90.80
2022-10-20T12:55:13.274Z,91.90
2022-10-20T12:57:46.326Z,92.00
2022-10-20T13:00:20.458Z,92.80
2022-10-20T13:03:00.018Z,92.90
2022-10-20T13:05:48.494Z,93.20
2022-10-20T13:08:20.391Z,92.80
2022-10-20T13:10:48.443Z,92.50
2022-10-20T13:13:21.049Z,92.30
2022-10-20T13:15:52.951Z,92.20
2022-10-20T13:18:27.296Z,93.30
2022-10-20T13:21:19.878Z,93.60
2022-10-20T13:23:53.923Z,93.50
2022-10-20T13:26:30.504Z,93.20
2022-10-20T13:29:00.124Z,94.30
2022-10-20T13:31:52.042Z,94.00
2022-10-20T13:34:46.944Z,94.30
2022-10-20T13:37:28.425Z,93.60
2022-10-20T13:40:23.591Z,93.00
2022-10-20T13:42:56.514Z,93.00
2022-10-20T13:45:38.350Z,92.70
2022-10-20T13:48:40.447Z,92.70
2022-10-20T13:51:13.313Z,92.60
2022-10-20T13:53:44.046Z,92.60
2022-10-20T13:56:18.055Z,92.50
2022-10-20T13:59:06.342Z,92.50
2022-10-20T14:01:34.811Z,92.50
2022-10-20T14:04:01.983Z,92.50
2022-10-20T14:06:36.555Z,92.50
2022-10-20T14:09:17.986Z,92.50
2022-10-20T14:11:53.384Z,92.40
2022-10-20T14:14:24.705Z,92.50
2022-10-20T14:17:08.030Z,92.40
2022-10-20T14:19:35.824Z,92.70
2022-10-20T14:22:21.372Z,92.40
2022-10-20T14:24:50.449Z,92.40
2022-10-20T14:27:27.162Z,92.30
2022-10-20T14:29:54.030Z,92.30
2022-10-20T14:32:22.298Z,92.20
2022-10-20T14:34:59.776Z,92.10
2022-10-20T14:37:33.031Z,92.00
2022-10-20T14:40:01.497Z,91.90
2022-10-20T14:42:30.503Z,91.90
2022-10-20T14:44:57.435Z,91.90
2022-10-20T14:47:24.249Z,91.90
2022-10-20T14:49:52.652Z,91.80
2022-10-20T14:52:21.787Z,91.80
2022-10-20T14:54:50.009Z,91.60
2022-10-20T14:57:17.872Z,91.40
2022-10-20T14:59:56.287Z,91.10
2022-10-20T15:02:24.144Z,91.00
2022-10-20T15:04:53.683Z,91.00
2022-10-20T15:07:32.809Z,91.10
2022-10-20T15:10:06.278Z,91.40
2022-10-20T15:12:39.284Z,91.00
2022-10-20T15:15:07.746Z,91.00
2022-10-20T15:17:39.572Z,90.60
2022-10-20T15:20:34.289Z,90.70
2022-10-20T15:23:15.040Z,90.60
2022-10-20T15:25:43.667Z,90.30
2022-10-20T15:28:16.240Z,90.10
2022-10-20T15:30:43.453Z,90.10
2022-10-20T15:33:10.167Z,90.10
2022-10-20T15:35:36.916Z,89.90
2022-10-20T15:38:03.679Z,89.90
2022-10-20T15:40:30.428Z,89.80
2022-10-20T15:42:57.138Z,89.80
2022-10-20T15:45:24.936Z,89.80
2022-10-20T15:47:51.647Z,89.70
2022-10-20T15:50:21.750Z,89.90
2022-10-20T15:52:50.922Z,89.90
2022-10-20T15:55:25.465Z,89.80
2022-10-20T15:57:52.938Z,88.90
2022-10-20T16:00:20.882Z,88.80
2022-10-20T16:02:48.889Z,88.80
2022-10-20T16:05:17.784Z,88.90
2022-10-20T16:07:44.517Z,88.60
2022-10-20T16:10:11.580Z,88.20
2022-10-20T16:12:38.788Z,87.80
2022-10-20T16:15:06.193Z,87.40
2022-10-20T16:17:32.969Z,87.40
2022-10-20T16:19:59.705Z,86.70
2022-10-20T16:22:26.571Z,86.30
2022-10-20T16:24:53.308Z,86.50
2022-10-20T16:27:20.012Z,86.40
2022-10-20T16:29:49.765Z,86.40
2022-10-20T16:32:17.637Z,86.60
2022-10-20T16:34:44.422Z,86.40
2022-10-20T16:37:11.227Z,86.70
2022-10-20T16:39:37.938Z,86.50
2022-10-20T16:42:04.634Z,86.20
2022-10-20T16:44:31.467Z,86.20
2022-10-20T16:46:58.402Z,86.30
2022-10-20T16:49:25.324Z,86.50
2022-10-20T16:51:52.130Z,86.60
2022-10-20T16:54:18.952Z,86.60
2022-10-20T16:56:47.370Z,86.70
2022-10-20T16:59:14.141Z,86.80
2022-10-20T17:01:40.876Z,86.80
2022-10-20T17:04:07.670Z,86.60
2022-10-20T17:06:34.394Z,86.60
2022-10-20T17:09:01.240Z,86.50
2022-10-20T17:11:29.269Z,85.60
2022-10-20T17:13:56.217Z,85.80
2022-10-20T17:16:30.933Z,86.30
2022-10-20T17:18:58.316Z,86.20
2022-10-20T17:21:25.162Z,86.20
2022-10-20T17:23:51.966Z,86.00
2022-10-20T17:26:20.584Z,86.00
2022-10-20T17:28:49.079Z,85.90
2022-10-20T17:31:17.578Z,85.80
2022-10-20T17:33:45.242Z,86.10
2022-10-20T17:36:12.776Z,86.20
2022-10-20T17:38:40.616Z,85.90
2022-10-20T17:41:08.836Z,86.00
2022-10-20T17:43:36.049Z,86.00
2022-10-20T17:46:07.844Z,86.50
2022-10-20T17:48:35.192Z,86.80
2022-10-20T17:51:09.926Z,86.80
2022-10-20T17:53:38.163Z,87.20
2022-10-20T17:56:08.560Z,87.00
2022-10-20T17:58:35.291Z,86.50
2022-10-20T18:01:35.489Z,86.50
2022-10-20T18:04:04.461Z,87.20
2022-10-20T18:06:34.381Z,87.40
2022-10-20T18:09:05.712Z,87.70
2022-10-20T18:11:33.282Z,88.00
2022-10-20T18:14:00.153Z,88.70
2022-10-20T18:16:28.227Z,89.30
2022-10-20T18:21:25.369Z,88.70
2022-10-20T18:24:05.015Z,88.60
2022-10-20T18:26:33.513Z,90.20
2022-10-20T18:29:01.763Z,90.30
2022-10-20T18:31:30.680Z,90.70
2022-10-20T18:34:05.775Z,90.70
2022-10-20T18:36:34.338Z,90.70
2022-10-20T18:39:01.143Z,90.60
2022-10-20T18:41:29.586Z,91.00
2022-10-20T18:43:58.512Z,91.50
2022-10-20T18:46:26.428Z,92.10
2022-10-20T18:48:53.633Z,90.90
2022-10-20T18:51:20.343Z,91.90
2022-10-20T18:53:51.389Z,92.30
2022-10-20T18:56:19.617Z,92.10
2022-10-20T18:58:54.052Z,92.30
2022-10-20T19:01:22.689Z,91.80
2022-10-20T19:03:50.539Z,91.90
2022-10-20T19:06:22.266Z,92.10
2022-10-20T19:08:54.081Z,92.30
2022-10-20T19:11:22.346Z,92.30
2022-10-20T19:13:49.363Z,92.40
2022-10-20T19:16:18.215Z,92.50
2022-10-20T19:18:46.915Z,92.60
2022-10-20T19:21:13.945Z,92.80
2022-10-20T19:23:45.503Z,92.90
2022-10-20T19:26:16.507Z,92.90
2022-10-20T19:28:49.095Z,92.80
2022-10-20T19:31:21.167Z,93.00
2022-10-20T19:33:50.875Z,93.00
2022-10-20T19:36:18.813Z,93.10
2022-10-20T19:38:46.519Z,92.90
2022-10-20T19:41:13.577Z,92.90
2022-10-20T19:43:40.361Z,92.80
2022-10-20T19:46:13.611Z,92.80
2022-10-20T19:48:40.326Z,92.60
2022-10-20T19:51:09.703Z,92.70
2022-10-20T19:53:37.134Z,92.40
2022-10-20T19:56:04.409Z,92.40
2022-10-20T19:58:31.152Z,92.50
2022-10-20T20:00:58.625Z,92.50
2022-10-20T20:03:25.866Z,92.90
2022-10-20T20:06:18.588Z,92.70
2022-10-20T20:08:49.853Z,92.60
2022-10-20T20:11:26.305Z,92.50
2022-10-20T20:14:03.774Z,92.50
2022-10-20T20:16:30.639Z,92.50
2022-10-20T20:18:57.521Z,92.40
2022-10-20T20:21:24.412Z,92.40
2022-10-20T20:24:00.139Z,92.40
2022-10-20T20:26:28.948Z,92.40
2022-10-20T20:28:55.891Z,92.40
2022-10-20T20:31:22.835Z,92.30
2022-10-20T20:33:49.730Z,92.40
2022-10-20T20:36:18.372Z,92.30
2022-10-20T20:38:46.488Z,92.60
2022-10-20T20:41:18.474Z,92.30
2022-10-20T20:43:45.379Z,92.50
2022-10-20T20:46:17.579Z,92.50
2022-10-20T20:48:44.541Z,92.80
2022-10-20T20:51:11.536Z,93.10
2022-10-20T20:53:39.265Z,93.10
2022-10-20T20:56:07.826Z,93.30
2022-10-20T20:58:34.592Z,93.50
2022-10-20T21:01:09.357Z,93.30
2022-10-20T21:03:36.369Z,93.30
2022-10-20T21:06:28.942Z,93.20
2022-10-20T21:09:01.438Z,93.20
2022-10-20T21:11:28.275Z,93.20
2022-10-20T21:13:55.689Z,93.10
2022-10-20T21:16:27.409Z,93.10
2022-10-20T21:18:55.760Z,93.00
2022-10-20T21:21:30.410Z,93.00
2022-10-20T21:23:57.516Z,93.10
2022-10-20T21:26:24.447Z,93.10
2022-10-20T21:28:51.478Z,93.10
2022-10-20T21:31:20.919Z,93.20
2022-10-20T21:33:52.526Z,93.20
2022-10-20T21:36:21.263Z,93.20
2022-10-20T21:38:47.965Z,93.20
2022-10-20T21:41:19.507Z,93.30
2022-10-20T21:43:48.020Z,93.70
2022-10-20T21:46:15.759Z,93.30
2022-10-20T21:48:42.774Z,93.40
2022-10-20T21:51:18.061Z,93.50
2022-10-20T21:53:44.813Z,93.40
2022-10-20T21:56:11.821Z,93.50
2022-10-20T21:58:38.718Z,93.50
2022-10-20T22:01:13.064Z,93.50
2022-10-20T22:03:39.940Z,93.50
2022-10-20T22:06:07.583Z,93.90
2022-10-20T22:08:35.810Z,93.50
2022-10-20T22:11:06.859Z,93.50
2022-10-20T22:13:33.688Z,93.60
2022-10-20T22:16:00.607Z,93.70
2022-10-20T22:18:27.514Z,93.70
2022-10-20T22:20:54.442Z,93.80
2022-10-20T22:23:21.949Z,94.00
2022-10-20T22:25:54.307Z,93.90
2022-10-20T22:28:21.076Z,93.80
2022-10-20T22:30:47.876Z,93.70
2022-10-20T22:33:14.653Z,93.70
2022-10-20T22:35:41.435Z,93.70
2022-10-20T22:38:08.172Z,93.70
2022-10-20T22:40:34.917Z,93.70
2022-10-20T22:43:01.617Z,93.70
2022-10-20T22:45:28.346Z,93.70
2022-10-20T22:47:55.908Z,93.80
2022-10-20T22:50:22.699Z,93.90
2022-10-20T22:52:50.828Z,93.90
2022-10-20T22:55:18.189Z,94.00
2022-10-20T22:57:50.712Z,94.40
2022-10-20T23:00:18.502Z,94.20
2022-10-20T23:02:45.403Z,93.80
2022-10-20T23:05:12.232Z,93.80
2022-10-20T23:07:39.298Z,93.80
2022-10-20T23:10:06.662Z,93.80
2022-10-20T23:12:33.377Z,93.80
2022-10-20T23:15:00.169Z,93.70
2022-10-20T23:17:27.722Z,93.80
2022-10-20T23:19:55.582Z,93.90
2022-10-20T23:22:22.379Z,94.00
2022-10-20T23:24:49.106Z,94.00
2022-10-20T23:27:15.946Z,94.00
2022-10-20T23:29:42.666Z,94.00
2022-10-20T23:32:09.633Z,94.00
2022-10-20T23:34:36.344Z,93.90
2022-10-20T23:37:03.093Z,93.90
2022-10-20T23:39:29.828Z,93.90
2022-10-20T23:41:57.606Z,93.80
2022-10-20T23:44:24.362Z,94.20
2022-10-20T23:46:52.015Z,93.80
2022-10-20T23:49:18.729Z,93.80
2022-10-20T23:51:45.448Z,93.80
2022-10-20T23:54:12.177Z,94.10
2022-10-20T23:56:38.891Z,94.10
2022-10-20T23:59:05.654Z,94.10
